Time;durP1;ratioP1;P1;durP2;ratioP2;P2;SDS_P1;SDS_P2;PMS_P1;PMS_P2;Temp;Humidity;BMP_temperature;BMP_pressure;BME280_temperature;BME280_humidity;BME280_pressure;Samples;Min_cycle;Max_cycle;Signal;HPM_P1;HPM_P2
2023/09/25 00:02:21;;;;;;;;;6.67;5.67;;;;;;;;5092232;27;45796;-73
2023/09/25 00:04:46;;;;;;;;;7.00;7.00;;;;;;;;5083191;27;45634;-75
2023/09/25 00:07:11;;;;;;;;;4.33;4.33;;;;;;;;5093685;27;45810;-75
2023/09/25 00:09:37;;;;;;;;;7.67;6.33;;;;;;;;5088264;27;45985;-76
2023/09/25 00:12:02;;;;;;;;;8.00;7.67;;;;;;;;5082403;27;46853;-75
2023/09/25 00:14:29;;;;;;;;;8.67;6.33;;;;;;;;5093483;27;45679;-75
2023/09/25 00:16:54;;;;;;;;;9.00;6.67;;;;;;;;5082910;27;45651;-76
2023/09/25 00:19:20;;;;;;;;;8.33;6.00;;;;;;;;5083273;27;45957;-75
2023/09/25 00:21:46;;;;;;;;;11.00;6.33;;;;;;;;5084641;27;45619;-75
2023/09/25 00:24:12;;;;;;;;;7.67;6.00;;;;;;;;5081651;27;45744;-75
2023/09/25 00:26:38;;;;;;;;;7.00;7.00;;;;;;;;5085962;27;45776;-74
2023/09/25 00:29:03;;;;;;;;;8.33;5.33;;;;;;;;5071683;27;46041;-73
2023/09/25 00:31:28;;;;;;;;;10.67;8.67;;;;;;;;5085981;27;47008;-75
2023/09/25 00:33:53;;;;;;;;;9.00;8.00;;;;;;;;5079555;27;45418;-75
2023/09/25 00:36:19;;;;;;;;;10.33;7.33;;;;;;;;5081294;27;45826;-74
2023/09/25 00:38:46;;;;;;;;;8.00;6.67;;;;;;;;5079817;27;45775;-75
2023/09/25 00:41:11;;;;;;;;;10.33;7.00;;;;;;;;5091392;27;45708;-74
2023/09/25 00:43:37;;;;;;;;;13.00;7.33;;;;;;;;5082616;27;45507;-74
2023/09/25 00:46:02;;;;;;;;;6.33;6.33;;;;;;;;5092128;27;45824;-74
2023/09/25 00:48:29;;;;;;;;;6.33;6.00;;;;;;;;5089406;27;45714;-74
2023/09/25 00:50:56;;;;;;;;;7.67;7.00;;;;;;;;5093052;27;45491;-74
2023/09/25 00:53:23;;;;;;;;;11.00;11.00;;;;;;;;5087276;27;45727;-72
2023/09/25 00:55:49;;;;;;;;;10.33;9.00;;;;;;;;5093103;27;45472;-74
2023/09/25 00:58:14;;;;;;;;;7.33;6.00;;;;;;;;5089310;27;45210;-73
2023/09/25 01:00:39;;;;;;;;;8.33;8.00;;;;;;;;5091970;27;45773;-74
2023/09/25 01:03:06;;;;;;;;;7.33;5.67;;;;;;;;5082833;27;45645;-73
2023/09/25 01:05:32;;;;;;;;;7.33;5.67;;;;;;;;5085736;27;45796;-72
2023/09/25 01:07:58;;;;;;;;;6.00;5.00;;;;;;;;5089634;27;45563;-74
2023/09/25 01:10:23;;;;;;;;;10.00;6.00;;;;;;;;5081315;27;48018;-74
2023/09/25 01:12:49;;;;;;;;;3.00;3.00;;;;;;;;5086173;27;45847;-75
2023/09/25 01:15:15;;;;;;;;;4.67;4.67;;;;;;;;5083494;27;46039;-74
2023/09/25 01:17:42;;;;;;;;;8.33;7.00;;;;;;;;5088077;27;45550;-73
2023/09/25 01:20:11;;;;;;;;;6.33;5.67;;;;;;;;5090723;27;47436;-76
2023/09/25 01:22:37;;;;;;;;;7.33;5.67;;;;;;;;5081825;27;45653;-75
2023/09/25 01:25:02;;;;;;;;;9.00;5.00;;;;;;;;5085729;27;45571;-74
2023/09/25 01:27:28;;;;;;;;;8.67;6.00;;;;;;;;5070977;28;46041;-76
2023/09/25 01:29:53;;;;;;;;;5.00;3.00;;;;;;;;5090597;27;45996;-74
2023/09/25 01:32:19;;;;;;;;;7.67;4.00;;;;;;;;5080064;27;45661;-73
2023/09/25 01:34:45;;;;;;;;;8.33;7.00;;;;;;;;5087869;27;44910;-76
2023/09/25 01:37:10;;;;;;;;;6.00;5.00;;;;;;;;5084986;27;45764;-75
2023/09/25 01:39:35;;;;;;;;;5.33;5.00;;;;;;;;5093168;27;46221;-75
2023/09/25 01:42:01;;;;;;;;;7.33;4.00;;;;;;;;5078012;27;45786;-75
2023/09/25 01:44:30;;;;;;;;;5.00;4.00;;;;;;;;5092576;27;45588;-75
2023/09/25 01:46:56;;;;;;;;;4.00;4.00;;;;;;;;5071452;27;45476;-75
2023/09/25 01:49:22;;;;;;;;;5.00;5.00;;;;;;;;5079257;27;46581;-72
2023/09/25 01:51:49;;;;;;;;;4.33;2.00;;;;;;;;5079549;27;45398;-73
2023/09/25 01:54:14;;;;;;;;;8.00;4.00;;;;;;;;5091602;27;45493;-73
2023/09/25 01:56:44;;;;;;;;;10.00;6.00;;;;;;;;5084612;27;45872;-74
2023/09/25 01:59:09;;;;;;;;;4.00;3.33;;;;;;;;5072171;27;47094;-73
2023/09/25 02:01:36;;;;;;;;;8.33;5.33;;;;;;;;5094652;27;45922;-73
2023/09/25 02:04:01;;;;;;;;;6.00;4.67;;;;;;;;5095963;27;45433;-75
2023/09/25 02:06:26;;;;;;;;;8.67;5.67;;;;;;;;5094740;27;46686;-74
2023/09/25 02:08:51;;;;;;;;;6.67;4.67;;;;;;;;5095187;27;46374;-75
2023/09/25 02:11:17;;;;;;;;;10.00;6.00;;;;;;;;5082770;27;45593;-74
2023/09/25 02:13:42;;;;;;;;;7.00;4.33;;;;;;;;5095676;27;45366;-73
2023/09/25 02:16:09;;;;;;;;;6.00;5.00;;;;;;;;5088419;27;45777;-75
2023/09/25 02:18:34;;;;;;;;;5.00;5.00;;;;;;;;5094756;27;48522;-76
2023/09/25 02:20:59;;;;;;;;;3.00;3.00;;;;;;;;5094463;27;45437;-74
2023/09/25 02:23:25;;;;;;;;;11.33;6.33;;;;;;;;5083476;27;45549;-74
2023/09/25 02:25:50;;;;;;;;;3.00;3.00;;;;;;;;5082398;27;45967;-74
2023/09/25 02:28:15;;;;;;;;;8.33;6.00;;;;;;;;5090339;27;46072;-74
2023/09/25 02:30:41;;;;;;;;;9.67;7.67;;;;;;;;5075671;27;45367;-74
2023/09/25 02:33:09;;;;;;;;;6.00;5.67;;;;;;;;5086147;27;45635;-73
2023/09/25 02:35:36;;;;;;;;;10.67;6.00;;;;;;;;5093266;27;46156;-73
2023/09/25 02:38:02;;;;;;;;;10.33;6.00;;;;;;;;5079625;27;46284;-74
2023/09/25 02:40:27;;;;;;;;;11.33;7.33;;;;;;;;5088910;27;45836;-72
2023/09/25 02:42:52;;;;;;;;;5.33;5.33;;;;;;;;5077786;27;45874;-75
2023/09/25 02:45:17;;;;;;;;;7.00;6.67;;;;;;;;5079566;27;45959;-73
2023/09/25 02:47:43;;;;;;;;;6.67;6.67;;;;;;;;5073431;27;47185;-75
2023/09/25 02:50:09;;;;;;;;;6.33;6.33;;;;;;;;5081094;27;45460;-75
2023/09/25 02:52:34;;;;;;;;;4.00;2.00;;;;;;;;5088469;27;45572;-74
2023/09/25 02:54:59;;;;;;;;;9.33;9.33;;;;;;;;5089633;27;45819;-73
2023/09/25 02:57:25;;;;;;;;;5.00;5.00;;;;;;;;5087864;27;46589;-73
2023/09/25 02:59:50;;;;;;;;;9.33;7.33;;;;;;;;5087242;27;45694;-74
2023/09/25 03:02:16;;;;;;;;;8.33;8.00;;;;;;;;5073976;28;45347;-73
2023/09/25 03:04:41;;;;;;;;;9.00;7.67;;;;;;;;5088491;27;45489;-73
2023/09/25 03:07:06;;;;;;;;;10.00;7.67;;;;;;;;5088287;27;45802;-76
2023/09/25 03:09:31;;;;;;;;;7.00;6.00;;;;;;;;5089063;27;45398;-76
2023/09/25 03:11:57;;;;;;;;;8.67;8.00;;;;;;;;5073933;27;45408;-74
2023/09/25 03:14:22;;;;;;;;;10.00;8.33;;;;;;;;5087322;27;45596;-75
2023/09/25 03:16:47;;;;;;;;;7.33;7.00;;;;;;;;5075122;27;48187;-73
2023/09/25 03:19:13;;;;;;;;;12.67;8.33;;;;;;;;5094418;27;45396;-74
2023/09/25 03:21:39;;;;;;;;;8.33;6.33;;;;;;;;5087640;27;45479;-73
2023/09/25 03:24:05;;;;;;;;;9.00;8.00;;;;;;;;5086848;27;45507;-75
2023/09/25 03:26:30;;;;;;;;;8.00;8.00;;;;;;;;5094056;27;46286;-72
2023/09/25 03:28:55;;;;;;;;;10.33;8.33;;;;;;;;5090323;27;45703;-74
2023/09/25 03:31:21;;;;;;;;;8.00;7.00;;;;;;;;5087621;27;45881;-73
2023/09/25 03:33:49;;;;;;;;;5.67;5.67;;;;;;;;5075044;27;45497;-74
2023/09/25 03:36:14;;;;;;;;;14.67;13.00;;;;;;;;5071948;27;46923;-73
2023/09/25 03:38:39;;;;;;;;;13.00;11.67;;;;;;;;5080529;27;45766;-73
2023/09/25 03:41:05;;;;;;;;;5.00;5.00;;;;;;;;5078823;27;45417;-74
2023/09/25 03:43:30;;;;;;;;;13.00;9.67;;;;;;;;5091816;27;45763;-73
2023/09/25 03:45:56;;;;;;;;;9.67;7.67;;;;;;;;5085579;27;46270;-74
2023/09/25 03:48:21;;;;;;;;;13.67;9.33;;;;;;;;5092896;27;45710;-73
2023/09/25 03:50:49;;;;;;;;;12.67;11.33;;;;;;;;5092031;27;45582;-74
2023/09/25 03:53:15;;;;;;;;;17.67;14.33;;;;;;;;5087690;27;45798;-72
2023/09/25 03:55:41;;;;;;;;;17.67;14.33;;;;;;;;5086250;27;45971;-74
2023/09/25 03:58:06;;;;;;;;;10.67;10.67;;;;;;;;5082056;27;46053;-73
2023/09/25 04:00:31;;;;;;;;;10.00;10.00;;;;;;;;5085737;27;45748;-73
2023/09/25 04:02:57;;;;;;;;;8.67;8.67;;;;;;;;5076788;27;46064;-73
2023/09/25 04:05:26;;;;;;;;;8.00;8.00;;;;;;;;5094086;27;46420;-73
2023/09/25 04:07:51;;;;;;;;;9.00;7.33;;;;;;;;5089090;27;45777;-73
2023/09/25 04:10:18;;;;;;;;;10.33;8.00;;;;;;;;5086332;27;45753;-74
2023/09/25 04:12:44;;;;;;;;;10.00;9.00;;;;;;;;5078546;27;45938;-73
2023/09/25 04:15:16;;;;;;;;;9.33;7.00;;;;;;;;5088708;27;45639;-73
2023/09/25 04:17:42;;;;;;;;;9.00;7.67;;;;;;;;5078507;27;45811;-74
2023/09/25 04:20:31;;;;;;;;;8.00;8.00;;;;;;;;5093368;27;45853;-74
2023/09/25 04:22:55;;;;;;;;;11.67;8.67;;;;;;;;5089205;27;45734;-73
2023/09/25 04:25:21;;;;;;;;;8.33;7.67;;;;;;;;5081240;27;45957;-74
2023/09/25 04:27:50;;;;;;;;;10.00;9.67;;;;;;;;5079527;27;45432;-73
2023/09/25 04:30:17;;;;;;;;;13.50;12.50;;;;;;;;5092510;27;45849;-73
2023/09/25 04:32:43;;;;;;;;;13.00;12.00;;;;;;;;5078902;27;47004;-74
2023/09/25 04:35:11;;;;;;;;;9.67;9.33;;;;;;;;5090269;27;45859;-76
2023/09/25 04:37:37;;;;;;;;;12.67;11.00;;;;;;;;5071062;27;45804;-74
2023/09/25 04:40:09;;;;;;;;;3.33;2.33;;;;;;;;5076212;27;45960;-74
2023/09/25 04:42:34;;;;;;;;;11.00;10.00;;;;;;;;5087216;27;45407;-74
2023/09/25 04:45:00;;;;;;;;;14.33;10.67;;;;;;;;5076281;27;47535;-73
2023/09/25 04:47:25;;;;;;;;;9.00;8.00;;;;;;;;5091850;27;45670;-74
2023/09/25 04:49:50;;;;;;;;;14.67;12.67;;;;;;;;5089643;27;45397;-76
2023/09/25 04:52:15;;;;;;;;;13.00;11.67;;;;;;;;5082224;27;45345;-76
2023/09/25 04:54:41;;;;;;;;;7.67;5.00;;;;;;;;5078541;27;46039;-77
2023/09/25 04:57:06;;;;;;;;;16.33;12.33;;;;;;;;5087120;27;45779;-74
2023/09/25 04:59:31;;;;;;;;;15.33;11.00;;;;;;;;5089986;27;45976;-75
2023/09/25 05:01:56;;;;;;;;;12.33;11.67;;;;;;;;5084341;27;45567;-76
2023/09/25 05:04:22;;;;;;;;;7.67;5.67;;;;;;;;5086456;27;45643;-75
2023/09/25 05:06:47;;;;;;;;;11.67;11.67;;;;;;;;5095708;27;45697;-76
2023/09/25 05:09:12;;;;;;;;;11.33;9.67;;;;;;;;5078984;27;45836;-76
2023/09/25 05:11:38;;;;;;;;;12.33;11.33;;;;;;;;5086503;27;45665;-78
2023/09/25 05:14:05;;;;;;;;;11.33;10.33;;;;;;;;5089032;27;46525;-73
2023/09/25 05:16:30;;;;;;;;;14.00;9.00;;;;;;;;5077739;27;45514;-75
2023/09/25 05:18:57;;;;;;;;;10.67;8.67;;;;;;;;5091005;27;45507;-75
2023/09/25 05:21:23;;;;;;;;;8.33;8.33;;;;;;;;5091711;27;45591;-75
2023/09/25 05:23:48;;;;;;;;;10.33;9.00;;;;;;;;5098571;27;45654;-76
2023/09/25 05:26:17;;;;;;;;;12.67;10.00;;;;;;;;5083827;27;45807;-77
2023/09/25 05:28:42;;;;;;;;;26.33;23.33;;;;;;;;5096757;27;45475;-75
2023/09/25 05:31:07;;;;;;;;;18.67;16.67;;;;;;;;5080617;27;45671;-76
2023/09/25 05:33:33;;;;;;;;;13.33;9.67;;;;;;;;5086188;27;46045;-78
2023/09/25 05:35:58;;;;;;;;;12.33;11.33;;;;;;;;5080509;27;45447;-75
2023/09/25 05:38:24;;;;;;;;;13.67;12.67;;;;;;;;5077770;27;45819;-76
2023/09/25 05:40:49;;;;;;;;;11.00;8.33;;;;;;;;5087497;27;45478;-76
2023/09/25 05:43:14;;;;;;;;;7.67;7.67;;;;;;;;5090018;27;45477;-75
2023/09/25 05:45:40;;;;;;;;;9.00;7.33;;;;;;;;5092460;27;45589;-78
2023/09/25 05:48:05;;;;;;;;;13.00;13.00;;;;;;;;5079959;27;45659;-76
2023/09/25 05:50:33;;;;;;;;;14.67;11.67;;;;;;;;5083326;27;45558;-74
2023/09/25 05:52:59;;;;;;;;;14.00;11.33;;;;;;;;5085701;27;46336;-76
2023/09/25 05:55:24;;;;;;;;;13.67;10.67;;;;;;;;5079716;27;45767;-75
2023/09/25 05:57:49;;;;;;;;;12.00;8.33;;;;;;;;5088345;27;45803;-77
2023/09/25 06:00:18;;;;;;;;;8.67;8.67;;;;;;;;5091000;27;46561;-75
2023/09/25 06:02:43;;;;;;;;;12.33;9.67;;;;;;;;5088608;27;45559;-79
2023/09/25 06:05:09;;;;;;;;;8.33;8.33;;;;;;;;5094802;27;45770;-77
2023/09/25 06:07:37;;;;;;;;;12.00;11.00;;;;;;;;5080282;27;45364;-78
2023/09/25 06:10:04;;;;;;;;;12.33;10.00;;;;;;;;5090280;27;45771;-76
2023/09/25 06:12:29;;;;;;;;;12.33;10.00;;;;;;;;5087937;27;48130;-75
2023/09/25 06:14:54;;;;;;;;;11.33;9.33;;;;;;;;5088014;27;45474;-77
2023/09/25 06:17:19;;;;;;;;;14.67;9.00;;;;;;;;5081229;27;45370;-77
2023/09/25 06:19:45;;;;;;;;;8.67;8.67;;;;;;;;5089617;27;45342;-75
2023/09/25 06:22:11;;;;;;;;;9.00;8.00;;;;;;;;5089454;27;45693;-75
2023/09/25 06:24:36;;;;;;;;;15.00;10.67;;;;;;;;5083867;27;45414;-78
2023/09/25 06:27:01;;;;;;;;;9.33;9.33;;;;;;;;5090977;27;46198;-78
2023/09/25 06:29:26;;;;;;;;;19.67;13.33;;;;;;;;5089241;27;46072;-75
2023/09/25 06:31:51;;;;;;;;;15.33;15.00;;;;;;;;5083428;27;46622;-75
2023/09/25 06:34:17;;;;;;;;;14.33;14.33;;;;;;;;5078554;27;45870;-76
2023/09/25 06:36:42;;;;;;;;;11.00;11.00;;;;;;;;5080359;27;45537;-76
2023/09/25 06:39:09;;;;;;;;;9.33;8.33;;;;;;;;5082160;27;45602;-75
2023/09/25 06:41:35;;;;;;;;;10.67;8.33;;;;;;;;5080408;27;45534;-75
2023/09/25 06:44:00;;;;;;;;;11.33;11.33;;;;;;;;5076788;27;45516;-75
2023/09/25 06:46:25;;;;;;;;;10.67;9.33;;;;;;;;5079865;27;46846;-76
2023/09/25 06:48:51;;;;;;;;;6.67;6.00;;;;;;;;5088645;27;45612;-78
2023/09/25 06:51:17;;;;;;;;;9.67;8.67;;;;;;;;5087297;27;46077;-77
2023/09/25 06:53:43;;;;;;;;;13.33;10.00;;;;;;;;5081771;27;45432;-76
2023/09/25 06:56:08;;;;;;;;;13.00;10.33;;;;;;;;5083490;27;45712;-73
2023/09/25 06:58:33;;;;;;;;;7.00;7.00;;;;;;;;5075083;27;45763;-75
2023/09/25 07:00:59;;;;;;;;;6.67;6.67;;;;;;;;5077031;27;47325;-78
2023/09/25 07:03:24;;;;;;;;;5.33;5.33;;;;;;;;5085876;27;45765;-75
2023/09/25 07:05:50;;;;;;;;;7.25;7.25;;;;;;;;5080993;27;45596;-74
2023/09/25 07:08:15;;;;;;;;;8.50;6.25;;;;;;;;5090581;27;45520;-76
2023/09/25 07:10:44;;;;;;;;;5.75;5.25;;;;;;;;5086374;27;46875;-75
2023/09/25 07:13:09;;;;;;;;;7.25;6.25;;;;;;;;5086404;27;45784;-73
2023/09/25 07:15:34;;;;;;;;;5.25;5.25;;;;;;;;5080429;27;45783;-76
2023/09/25 07:18:00;;;;;;;;;5.75;5.75;;;;;;;;5085278;27;45441;-75
2023/09/25 07:20:25;;;;;;;;;9.00;7.00;;;;;;;;5078570;27;48617;-75
2023/09/25 07:22:51;;;;;;;;;9.25;8.00;;;;;;;;5079122;27;45561;-74
2023/09/25 07:25:16;;;;;;;;;8.75;7.25;;;;;;;;5080610;27;45566;-75
2023/09/25 07:27:41;;;;;;;;;7.50;5.75;;;;;;;;5085306;27;45687;-74
2023/09/25 07:30:08;;;;;;;;;6.25;6.25;;;;;;;;5085924;27;45840;-73
2023/09/25 07:32:33;;;;;;;;;7.50;7.25;;;;;;;;5079936;27;45432;-74
2023/09/25 07:34:59;;;;;;;;;8.00;6.00;;;;;;;;5091587;27;45808;-75
2023/09/25 07:37:24;;;;;;;;;8.25;7.00;;;;;;;;5096066;27;45717;-75
2023/09/25 07:39:49;;;;;;;;;8.50;6.50;;;;;;;;5088655;27;47136;-75
2023/09/25 07:42:15;;;;;;;;;11.67;8.67;;;;;;;;5090503;27;45363;-74
2023/09/25 07:44:40;;;;;;;;;8.00;6.33;;;;;;;;5082475;27;45723;-74
2023/09/25 07:47:12;;;;;;;;;6.67;6.67;;;;;;;;5093352;27;45863;-75
2023/09/25 07:49:44;;;;;;;;;8.33;6.67;;;;;;;;5095033;27;45441;-74
2023/09/25 07:52:15;;;;;;;;;9.00;8.00;;;;;;;;5094603;27;45509;-75
2023/09/25 07:54:50;;;;;;;;;6.33;6.33;;;;;;;;5086541;27;45752;-73
2023/09/25 07:57:16;;;;;;;;;6.50;6.50;;;;;;;;5085864;27;45918;-76
2023/09/25 07:59:42;;;;;;;;;7.00;7.00;;;;;;;;5094354;27;45516;-74
2023/09/25 08:02:07;;;;;;;;;8.00;6.25;;;;;;;;5096063;27;45561;-75
2023/09/25 08:04:34;;;;;;;;;8.00;6.00;;;;;;;;5090493;27;45418;-74
2023/09/25 08:06:59;;;;;;;;;7.25;6.50;;;;;;;;5092437;27;45509;-74
2023/09/25 08:09:24;;;;;;;;;6.50;6.50;;;;;;;;5095701;27;45504;-73
2023/09/25 08:11:50;;;;;;;;;10.50;7.25;;;;;;;;5090711;27;45462;-75
2023/09/25 08:14:25;;;;;;;;;;;;;;;;;;;;;
2023/09/25 08:16:51;;;;;;;;;5.75;5.00;;;;;;;;5087812;27;74771;-74
2023/09/25 08:19:18;;;;;;;;;6.50;6.50;;;;;;;;5078999;27;46923;-74
2023/09/25 08:21:44;;;;;;;;;7.00;7.00;;;;;;;;5089272;27;45714;-76
2023/09/25 08:24:09;;;;;;;;;8.00;5.00;;;;;;;;5093900;27;45498;-74
2023/09/25 08:26:34;;;;;;;;;4.50;4.50;;;;;;;;5095529;27;45358;-74
2023/09/25 08:29:01;;;;;;;;;6.00;5.00;;;;;;;;5085410;27;45590;-73
2023/09/25 08:31:27;;;;;;;;;5.75;4.75;;;;;;;;5080950;27;45540;-74
2023/09/25 08:33:52;;;;;;;;;3.50;3.00;;;;;;;;5089835;27;45759;-74
2023/09/25 08:36:17;;;;;;;;;7.33;5.00;;;;;;;;5082454;27;45770;-73
2023/09/25 08:38:43;;;;;;;;;11.33;6.33;;;;;;;;5092456;27;46027;-73
2023/09/25 08:41:08;;;;;;;;;9.75;7.00;;;;;;;;5094429;27;45842;-75
2023/09/25 08:43:34;;;;;;;;;5.00;5.00;;;;;;;;5088202;27;45806;-75
2023/09/25 08:46:00;;;;;;;;;6.50;5.50;;;;;;;;5095731;27;45529;-75
2023/09/25 08:48:25;;;;;;;;;6.00;5.50;;;;;;;;5088483;27;46208;-74
2023/09/25 08:50:51;;;;;;;;;4.00;3.00;;;;;;;;5101172;27;45495;-82
2023/09/25 08:53:16;;;;;;;;;5.00;5.00;;;;;;;;5094549;27;45425;-77
2023/09/25 08:55:42;;;;;;;;;4.75;4.50;;;;;;;;5078346;27;46085;-75
2023/09/25 08:58:08;;;;;;;;;9.50;6.00;;;;;;;;5088099;27;46211;-75
2023/09/25 09:00:33;;;;;;;;;9.50;7.25;;;;;;;;5085307;27;45357;-75
2023/09/25 09:02:59;;;;;;;;;8.00;6.33;;;;;;;;5091844;27;45864;-76
2023/09/25 09:05:24;;;;;;;;;6.00;6.00;;;;;;;;5090854;27;47184;-76
2023/09/25 09:08:00;;;;;;;;;9.75;7.00;;;;;;;;5089660;27;47786;-76
2023/09/25 09:10:32;;;;;;;;;12.33;7.33;;;;;;;;5081952;27;45515;-76
2023/09/25 09:12:58;;;;;;;;;10.75;8.00;;;;;;;;5091094;27;45374;-76
2023/09/25 09:15:26;;;;;;;;;6.50;6.50;;;;;;;;5094813;27;46065;-79
2023/09/25 09:17:52;;;;;;;;;7.75;7.00;;;;;;;;5080846;27;46575;-79
2023/09/25 09:20:17;;;;;;;;;9.00;4.75;;;;;;;;5091581;27;45396;-76
2023/09/25 09:22:50;;;;;;;;;4.75;4.75;;;;;;;;5086501;27;45428;-75
2023/09/25 09:25:15;;;;;;;;;6.00;6.00;;;;;;;;5092039;27;45566;-74
2023/09/25 09:27:41;;;;;;;;;6.00;6.00;;;;;;;;5085222;27;45436;-75
2023/09/25 09:30:19;;;;;;;;;5.00;5.00;;;;;;;;5095224;27;45363;-75
2023/09/25 09:32:48;;;;;;;;;7.25;6.25;;;;;;;;5094720;27;45480;-79
2023/09/25 09:35:15;;;;;;;;;4.50;4.50;;;;;;;;5086397;27;45373;-77
2023/09/25 09:37:41;;;;;;;;;8.00;6.00;;;;;;;;5091811;27;46871;-78
2023/09/25 09:40:11;;;;;;;;;6.00;6.00;;;;;;;;5092617;27;45651;-76
2023/09/25 09:42:36;;;;;;;;;11.75;7.50;;;;;;;;5075532;27;45871;-76
2023/09/25 09:45:02;;;;;;;;;5.00;4.00;;;;;;;;5080940;27;46000;-78
2023/09/25 09:47:29;;;;;;;;;9.00;4.50;;;;;;;;5093941;27;45974;-75
2023/09/25 09:49:54;;;;;;;;;6.00;5.00;;;;;;;;5086923;27;45624;-77
2023/09/25 09:52:20;;;;;;;;;6.00;6.00;;;;;;;;5095162;27;45423;-77
2023/09/25 09:54:47;;;;;;;;;6.50;5.00;;;;;;;;5091230;27;45789;-78
2023/09/25 09:57:13;;;;;;;;;7.50;5.75;;;;;;;;5092041;27;46113;-76
2023/09/25 09:59:39;;;;;;;;;5.50;3.50;;;;;;;;5088604;27;45455;-77
2023/09/25 10:02:05;;;;;;;;;6.00;4.50;;;;;;;;5095128;27;45736;-77
2023/09/25 10:04:31;;;;;;;;;5.75;5.00;;;;;;;;5094609;27;45713;-78
2023/09/25 10:06:59;;;;;;;;;2.25;1.75;;;;;;;;5077915;27;46754;-77
2023/09/25 10:09:30;;;;;;;;;4.00;4.00;;;;;;;;5074682;27;45598;-79
2023/09/25 10:11:55;;;;;;;;;5.25;5.00;;;;;;;;5087379;27;45603;-76
2023/09/25 10:14:30;;;;;;;;;5.75;5.75;;;;;;;;5091561;27;45578;-78
2023/09/25 10:17:09;;;;;;;;;6.50;4.75;;;;;;;;5093318;27;45742;-77
2023/09/25 10:19:40;;;;;;;;;3.00;2.00;;;;;;;;5083557;27;45404;-77
2023/09/25 10:22:16;;;;;;;;;6.00;4.75;;;;;;;;5085012;27;45705;-77
2023/09/25 10:24:42;;;;;;;;;6.25;5.00;;;;;;;;5084723;27;45515;-79
2023/09/25 10:27:09;;;;;;;;;4.00;4.00;;;;;;;;5092069;27;45614;-76
2023/09/25 10:29:34;;;;;;;;;3.75;3.00;;;;;;;;5090034;27;45471;-77
2023/09/25 10:32:01;;;;;;;;;5.00;4.75;;;;;;;;5083353;27;45918;-77
2023/09/25 10:34:26;;;;;;;;;9.25;6.25;;;;;;;;5076364;27;46986;-78
2023/09/25 10:36:59;;;;;;;;;5.00;5.00;;;;;;;;5083667;27;45720;-77
2023/09/25 10:39:25;;;;;;;;;6.40;5.80;;;;;;;;5091088;27;46118;-75
2023/09/25 10:42:10;;;;;;;;;4.75;4.75;;;;;;;;5093874;27;45744;-75
2023/09/25 10:44:36;;;;;;;;;4.00;4.00;;;;;;;;5099066;27;45779;-76
2023/09/25 10:47:11;;;;;;;;;5.75;4.75;;;;;;;;5099856;27;45445;-78
2023/09/25 10:49:37;;;;;;;;;6.75;6.00;;;;;;;;5090892;27;45445;-77
2023/09/25 10:52:03;;;;;;;;;5.25;5.25;;;;;;;;5090510;27;45687;-79
2023/09/25 10:54:29;;;;;;;;;6.50;3.75;;;;;;;;5088130;27;45825;-77
2023/09/25 10:56:54;;;;;;;;;5.00;3.00;;;;;;;;5082706;27;48292;-78
2023/09/25 10:59:19;;;;;;;;;3.75;3.00;;;;;;;;5081463;27;45532;-79
2023/09/25 11:01:44;;;;;;;;;5.75;3.00;;;;;;;;5086895;27;45601;-79
2023/09/25 11:04:16;;;;;;;;;1.50;1.50;;;;;;;;5089455;27;45847;-79
2023/09/25 11:06:41;;;;;;;;;4.25;3.25;;;;;;;;5080122;27;45872;-76
2023/09/25 11:09:07;;;;;;;;;6.00;4.25;;;;;;;;5076266;27;45500;-75
2023/09/25 11:11:33;;;;;;;;;7.25;3.00;;;;;;;;5079995;27;45875;-77
2023/09/25 11:13:58;;;;;;;;;3.00;3.00;;;;;;;;5091202;27;45778;-75
2023/09/25 11:16:24;;;;;;;;;4.75;3.00;;;;;;;;5086004;27;45399;-77
2023/09/25 11:18:51;;;;;;;;;3.50;3.50;;;;;;;;5092558;27;45542;-81
2023/09/25 11:21:16;;;;;;;;;4.25;2.75;;;;;;;;5092561;27;45597;-77
2023/09/25 11:23:43;;;;;;;;;3.00;3.00;;;;;;;;5089602;27;45534;-78
2023/09/25 11:26:10;;;;;;;;;7.50;4.00;;;;;;;;5083691;27;47907;-77
2023/09/25 11:28:36;;;;;;;;;8.25;3.75;;;;;;;;5093371;27;45733;-77
2023/09/25 11:31:02;;;;;;;;;3.75;1.75;;;;;;;;5096309;27;45464;-78
2023/09/25 11:33:28;;;;;;;;;6.50;2.75;;;;;;;;5079686;27;45842;-79
2023/09/25 11:35:54;;;;;;;;;3.75;2.00;;;;;;;;5086889;27;45652;-78
2023/09/25 11:38:28;;;;;;;;;4.50;3.50;;;;;;;;5095950;27;45896;-77
2023/09/25 11:40:53;;;;;;;;;3.50;3.00;;;;;;;;5079099;27;45542;-76
2023/09/25 11:43:18;;;;;;;;;4.75;3.75;;;;;;;;5077308;27;46015;-76
2023/09/25 11:45:44;;;;;;;;;3.75;3.00;;;;;;;;5093629;27;45739;-77
2023/09/25 11:48:10;;;;;;;;;4.50;3.00;;;;;;;;5081569;27;45535;-78
2023/09/25 11:50:35;;;;;;;;;5.25;3.25;;;;;;;;5090293;27;45453;-76
2023/09/25 11:53:00;;;;;;;;;3.25;2.50;;;;;;;;5088870;27;45888;-76
2023/09/25 11:55:26;;;;;;;;;4.75;4.00;;;;;;;;5085016;27;46182;-75
2023/09/25 11:57:51;;;;;;;;;4.00;4.00;;;;;;;;5095506;27;45725;-76
2023/09/25 12:00:18;;;;;;;;;4.50;4.00;;;;;;;;5092297;27;45539;-77
2023/09/25 12:02:46;;;;;;;;;2.50;2.25;;;;;;;;5085873;27;45581;-77
2023/09/25 12:05:11;;;;;;;;;3.75;3.00;;;;;;;;5080654;27;47284;-76
2023/09/25 12:07:37;;;;;;;;;4.25;3.75;;;;;;;;5089661;27;45456;-76
2023/09/25 12:10:03;;;;;;;;;5.50;3.75;;;;;;;;5075654;27;45718;-76
2023/09/25 12:12:29;;;;;;;;;4.50;4.00;;;;;;;;5092270;27;45770;-76
2023/09/25 12:14:56;;;;;;;;;3.00;2.00;;;;;;;;5093701;27;45905;-76
2023/09/25 12:17:21;;;;;;;;;5.75;4.00;;;;;;;;5089058;27;45368;-78
2023/09/25 12:19:47;;;;;;;;;7.00;3.00;;;;;;;;5084601;27;45744;-76
2023/09/25 12:22:12;;;;;;;;;3.00;3.00;;;;;;;;5094349;27;45519;-76
2023/09/25 12:24:38;;;;;;;;;6.25;4.75;;;;;;;;5090895;27;45666;-77
2023/09/25 12:27:04;;;;;;;;;6.00;6.00;;;;;;;;5082593;27;45315;-77
2023/09/25 12:29:29;;;;;;;;;8.25;5.00;;;;;;;;5090957;27;45667;-78
2023/09/25 12:31:54;;;;;;;;;7.00;4.00;;;;;;;;5085022;27;45440;-76
2023/09/25 12:34:20;;;;;;;;;5.75;4.50;;;;;;;;5089270;27;45475;-77
2023/09/25 12:36:45;;;;;;;;;8.50;3.00;;;;;;;;5091305;27;45810;-76
2023/09/25 12:39:14;;;;;;;;;4.50;4.50;;;;;;;;5093099;27;45716;-78
2023/09/25 12:41:41;;;;;;;;;6.00;5.00;;;;;;;;5091721;27;46223;-77
2023/09/25 12:44:06;;;;;;;;;7.25;6.00;;;;;;;;5083391;27;48185;-77
2023/09/25 12:46:32;;;;;;;;;3.00;3.00;;;;;;;;5077687;27;45796;-76
2023/09/25 12:48:57;;;;;;;;;6.25;4.00;;;;;;;;5093458;27;45764;-76
2023/09/25 12:51:22;;;;;;;;;5.50;5.50;;;;;;;;5080837;27;45527;-77
2023/09/25 12:53:47;;;;;;;;;4.00;3.00;;;;;;;;5085652;27;45444;-76
2023/09/25 12:56:13;;;;;;;;;5.75;5.75;;;;;;;;5087976;27;45505;-76
2023/09/25 12:58:38;;;;;;;;;6.00;6.00;;;;;;;;5091590;27;45499;-75
2023/09/25 13:01:03;;;;;;;;;3.75;3.75;;;;;;;;5080602;27;45547;-77
2023/09/25 13:03:30;;;;;;;;;4.75;4.75;;;;;;;;5094514;27;45442;-77
2023/09/25 13:05:55;;;;;;;;;8.00;5.00;;;;;;;;5094648;27;45361;-76
2023/09/25 13:08:21;;;;;;;;;6.75;5.00;;;;;;;;5094630;27;45827;-76
2023/09/25 13:10:48;;;;;;;;;4.00;3.75;;;;;;;;5081746;27;45508;-76
2023/09/25 13:13:13;;;;;;;;;3.50;3.50;;;;;;;;5086787;27;45905;-76
2023/09/25 13:15:38;;;;;;;;;3.75;3.75;;;;;;;;5086766;27;45365;-76
2023/09/25 13:18:04;;;;;;;;;5.25;4.00;;;;;;;;5082010;27;45735;-74
2023/09/25 13:20:30;;;;;;;;;5.00;5.00;;;;;;;;5089192;27;45562;-75
2023/09/25 13:22:55;;;;;;;;;4.75;4.75;;;;;;;;5083630;27;46113;-76
2023/09/25 13:25:21;;;;;;;;;7.00;4.00;;;;;;;;5081183;27;45453;-78
2023/09/25 13:27:49;;;;;;;;;3.00;0.25;;;;;;;;5087698;27;45970;-76
2023/09/25 13:30:16;;;;;;;;;7.00;4.50;;;;;;;;5081738;27;45528;-76
2023/09/25 13:32:41;;;;;;;;;4.00;4.00;;;;;;;;5086882;27;45638;-77
2023/09/25 13:35:09;;;;;;;;;7.00;4.25;;;;;;;;5087712;27;45316;-75
2023/09/25 13:37:34;;;;;;;;;5.00;4.25;;;;;;;;5084067;27;45733;-76
2023/09/25 13:40:00;;;;;;;;;5.50;4.00;;;;;;;;5078628;27;45390;-76
2023/09/25 13:42:26;;;;;;;;;5.75;4.50;;;;;;;;5093762;27;45742;-78
2023/09/25 13:44:51;;;;;;;;;5.00;4.00;;;;;;;;5088635;27;45405;-76
2023/09/25 13:47:17;;;;;;;;;3.50;3.50;;;;;;;;5091178;27;45813;-76
2023/09/25 13:49:43;;;;;;;;;4.50;4.50;;;;;;;;5084875;27;45345;-74
2023/09/25 13:52:09;;;;;;;;;4.50;4.25;;;;;;;;5078975;27;47428;-75
2023/09/25 13:54:34;;;;;;;;;6.00;3.75;;;;;;;;5075412;27;45444;-75
2023/09/25 13:56:59;;;;;;;;;6.75;5.50;;;;;;;;5083909;27;45632;-80
2023/09/25 13:59:25;;;;;;;;;6.00;5.00;;;;;;;;5074495;27;45564;-80
2023/09/25 14:01:50;;;;;;;;;7.00;4.25;;;;;;;;5085736;27;45326;-76
2023/09/25 14:04:15;;;;;;;;;4.25;4.25;;;;;;;;5093826;27;45455;-77
2023/09/25 14:06:41;;;;;;;;;4.50;2.75;;;;;;;;5080446;27;45892;-76
2023/09/25 14:09:08;;;;;;;;;4.00;3.75;;;;;;;;5080392;27;46907;-77
2023/09/25 14:11:34;;;;;;;;;3.00;3.00;;;;;;;;5093742;27;46489;-75
2023/09/25 14:14:00;;;;;;;;;6.00;3.50;;;;;;;;5090658;27;45527;-76
2023/09/25 14:16:26;;;;;;;;;6.25;3.00;;;;;;;;5073717;27;45731;-76
2023/09/25 14:18:51;;;;;;;;;5.75;3.25;;;;;;;;5074530;27;46422;-76
2023/09/25 14:21:20;;;;;;;;;2.00;2.00;;;;;;;;5089901;27;45850;-78
2023/09/25 14:23:46;;;;;;;;;5.00;3.00;;;;;;;;5080267;27;46012;-81
2023/09/25 14:26:11;;;;;;;;;5.00;4.25;;;;;;;;5086304;27;45686;-77
2023/09/25 14:28:36;;;;;;;;;4.75;4.00;;;;;;;;5083505;27;45699;-78
2023/09/25 14:31:02;;;;;;;;;3.00;3.00;;;;;;;;5083150;27;45753;-79
2023/09/25 14:33:27;;;;;;;;;4.00;3.25;;;;;;;;5073715;27;46121;-76